Eko 4 — SVAR8 — position and weather

sailwx.info

Track history (hours):
 
Tides and Currents Weather Stations Pressure Air Temp Water Temp Dewpoint Dewpoint Depression Visibility Wind Speed Wind Dir Waves Ship Positions

Eko 4

Last reported at 2014-Oct-16 19:29 UTC. Time now 2014-Oct-21 11:53 UTC.
Position N 37°57' E 024°36'.

Length 88 m; draft 5.6 m.

Type: Ship (hazmat cat A). MMSI: 240912000.

Date/timePositionNaut miles runAvg speedWind from/ knotsBaromVisibWave heightAir tempDewpointWater temp
2014-Oct-16 19:29N 37°57' E 024°36'1010.2
2014-Oct-16 18:29N 37°50' E 024°27'2110.6
2014-Oct-16 16:33N 37°37' E 024°07'1010.5
2014-Oct-16 15:33N 37°37' E 023°54'10 9.7
2014-Oct-16 14:33N 37°40' E 023°42'10 9.9
2014-Oct-16 13:33N 37°49' E 023°37'9 8.7
2014-Oct-16 12:33N 37°57' E 023°34'4 0.4
2014-Oct-16 02:17N 38°01' E 023°36'0 0.0
2014-Oct-15 23:17N 38°01' E 023°36'0 0.0
2014-Oct-15 22:29N 38°01' E 023°36'0 0.0
2014-Oct-15 21:29N 38°01' E 023°36'0 0.0
2014-Oct-15 20:33N 38°01' E 023°36'3 2.6
2014-Oct-15 19:33N 38°01' E 023°32'0 0.1
2014-Oct-15 18:32N 38°01' E 023°32'0 0.0
2014-Oct-15 17:32N 38°01' E 023°32'0 0.0
2014-Oct-15 16:32N 38°01' E 023°32'0 0.0
2014-Oct-15 15:33N 38°01' E 023°32'0 0.0
2014-Oct-15 14:33N 38°01' E 023°32'0 0.0
2014-Oct-15 13:33N 38°01' E 023°32'0 0.0
2014-Oct-15 12:33N 38°01' E 023°32'4 4.4
2014-Oct-15 11:34N 37°57' E 023°34'8 7.9
2014-Oct-15 10:33N 37°51' E 023°39'1110.9
2014-Oct-15 09:33N 37°41' E 023°45'1210.8
2014-Oct-15 08:29N 37°33' E 023°55'1010.6
2014-Oct-15 07:33N 37°26' E 024°05'1110.6
2014-Oct-15 06:33N 37°19' E 024°14'1010.2
2014-Oct-15 05:32N 37°15' E 024°27'1010.3
2014-Oct-15 04:33N 37°10' E 024°38'1110.8
2014-Oct-15 03:33N 37°02' E 024°47'1010.3
2014-Oct-15 02:33N 36°55' E 024°56'1010.4
2014-Oct-15 01:33N 36°51' E 025°08'1010.5
2014-Oct-15 00:33N 36°49' E 025°21'1010.3
2014-Oct-14 23:33N 36°45' E 025°33'1010.1
2014-Oct-14 22:33N 36°43' E 025°45'10 9.8
2014-Oct-14 21:33N 36°43' E 025°57'1010.1
2014-Oct-14 20:33N 36°44' E 026°10'1010.2
2014-Oct-14 19:33N 36°46' E 026°22'16 1.2
2014-Oct-14 06:29N 36°35' E 026°36'9 9.5
2014-Oct-14 05:33N 36°29' E 026°28'10 9.7
2014-Oct-14 04:33N 36°22' E 026°19'10 9.7
2014-Oct-14 03:33N 36°16' E 026°11'10 9.7
2014-Oct-14 02:33N 36°09' E 026°02'10 9.9
2014-Oct-14 01:33N 36°03' E 025°53'1010.1
2014-Oct-14 00:33N 35°56' E 025°44'1010.3
2014-Oct-13 23:33N 35°49' E 025°34'1010.3
2014-Oct-13 22:33N 35°42' E 025°25'1110.6
2014-Oct-13 21:33N 35°34' E 025°16'10 0.6
2014-Oct-13 04:22N 35°32' E 025°04'810.2
2014-Oct-13 03:33N 35°40' E 025°01'1010.2
2014-Oct-13 02:33N 35°50' E 024°58'1110.5
2014-Oct-13 01:32N 36°00' E 024°56'1010.6
2014-Oct-13 00:33N 36°10' E 024°52'1010.5
2014-Oct-12 23:33N 36°21' E 024°50'1010.0
2014-Oct-12 22:33N 36°30' E 024°47'1010.0
2014-Oct-12 21:33N 36°40' E 024°45'10 9.5
2014-Oct-12 20:33N 36°49' E 024°41'9 9.4
2014-Oct-12 19:33N 36°56' E 024°33'10 9.6
2014-Oct-12 18:33N 37°03' E 024°25'1310.0
2014-Oct-12 17:13N 37°14' E 024°15'8 9.9
2014-Oct-12 16:25N 37°20' E 024°09'28 9.6
2014-Oct-12 13:33N 37°39' E 023°43'1010.0
2014-Oct-12 12:33N 37°48' E 023°38'9 9.3
2014-Oct-12 11:33N 37°57' E 023°35'5 0.3
2014-Oct-11 14:33N 38°01' E 023°31'7 6.9
2014-Oct-11 13:33N 37°56' E 023°36'6 5.9
2014-Oct-11 12:33N 37°50' E 023°40'10 9.4
2014-Oct-11 11:33N 37°42' E 023°45'23 9.4
2014-Oct-11 09:04N 37°25' E 024°06'4 8.6
2014-Oct-11 08:33N 37°23' E 024°10'9 8.9
2014-Oct-11 07:32N 37°17' E 024°19'9 8.6
2014-Oct-11 06:31N 37°15' E 024°30'8 8.2
2014-Oct-11 05:33N 37°10' E 024°37'9 8.9
2014-Oct-11 04:33N 37°04' E 024°45'10 9.6
2014-Oct-11 03:32N 36°57' E 024°54'9 9.5
2014-Oct-11 02:33N 36°52' E 025°04'1010.3
2014-Oct-11 01:33N 36°50' E 025°16'10 9.8
2014-Oct-11 00:33N 36°47' E 025°28'10 9.6
2014-Oct-10 23:33N 36°44' E 025°39'9 9.1
2014-Oct-10 22:33N 36°43' E 025°51'1010.1
2014-Oct-10 21:32N 36°49' E 026°01'9 8.6
2014-Oct-10 20:31N 36°52' E 026°12'18 8.1
2014-Oct-10 18:16N 36°53' E 026°34'7 8.9
2014-Oct-10 17:31N 36°52' E 026°42'10 0.6
2014-Oct-10 02:33N 36°48' E 026°53'8 7.9
2014-Oct-10 01:32N 36°40' E 026°53'6 0.2
2014-Oct-08 20:22N 36°34' E 026°55'8 9.1
2014-Oct-08 19:32N 36°37' E 026°47'10 9.8
2014-Oct-08 18:32N 36°42' E 026°36'10 9.7
2014-Oct-08 17:33N 36°45' E 026°25'10 9.8
2014-Oct-08 16:33N 36°49' E 026°13'9 9.2
2014-Oct-08 15:33N 36°50' E 026°02'9 8.6
2014-Oct-08 14:33N 36°44' E 025°53'9 9.1
2014-Oct-08 13:33N 36°44' E 025°42'1010.3
2014-Oct-08 12:33N 36°47' E 025°29'1010.0
2014-Oct-08 11:33N 36°49' E 025°17'1010.0
2014-Oct-08 10:33N 36°52' E 025°05'10 9.5
2014-Oct-08 09:33N 36°56' E 024°55'10 9.8
2014-Oct-08 08:33N 37°04' E 024°46'1010.0
2014-Oct-08 07:33N 37°11' E 024°37'9 8.9
2014-Oct-08 06:33N 37°15' E 024°28'12 9.0
2014-Oct-08 05:12N 37°19' E 024°13'610.0
2014-Oct-08 04:33N 37°24' E 024°08'10 9.5
2014-Oct-08 03:32N 37°30' E 023°58'9 9.7
2014-Oct-08 02:33N 37°36' E 023°49'9 9.5
2014-Oct-08 01:33N 37°43' E 023°41'9 9.1
2014-Oct-08 00:34N 37°50' E 023°33'1010.0
2014-Oct-07 23:33N 37°52' E 023°21'1010.2
2014-Oct-07 22:33N 37°54' E 023°08'  
Track history (hours):
 
Tides and Currents Weather Stations Pressure Air Temp Water Temp Dewpoint Dewpoint Depression Visibility Wind Speed Wind Dir Waves Ship Positions

Eko 4

Last reported at 2014-Oct-16 19:29 UTC. Time now 2014-Oct-21 11:53 UTC.
Position N 37°57' E 024°36'.

Length 88 m; draft 5.6 m.

Type: Ship (hazmat cat A). MMSI: 240912000.

Date/timePositionNaut miles runAvg speedWind from/ knotsBaromVisibWave heightAir tempDewpointWater temp
2014-Oct-16 19:29N 37°57' E 024°36'1010.2
2014-Oct-16 18:29N 37°50' E 024°27'2110.6
2014-Oct-16 16:33N 37°37' E 024°07'1010.5
2014-Oct-16 15:33N 37°37' E 023°54'10 9.7
2014-Oct-16 14:33N 37°40' E 023°42'10 9.9
2014-Oct-16 13:33N 37°49' E 023°37'9 8.7
2014-Oct-16 12:33N 37°57' E 023°34'4 0.4
2014-Oct-16 02:17N 38°01' E 023°36'0 0.0
2014-Oct-15 23:17N 38°01' E 023°36'0 0.0
2014-Oct-15 22:29N 38°01' E 023°36'0 0.0
2014-Oct-15 21:29N 38°01' E 023°36'0 0.0
2014-Oct-15 20:33N 38°01' E 023°36'3 2.6
2014-Oct-15 19:33N 38°01' E 023°32'0 0.1
2014-Oct-15 18:32N 38°01' E 023°32'0 0.0
2014-Oct-15 17:32N 38°01' E 023°32'0 0.0
2014-Oct-15 16:32N 38°01' E 023°32'0 0.0
2014-Oct-15 15:33N 38°01' E 023°32'0 0.0
2014-Oct-15 14:33N 38°01' E 023°32'0 0.0
2014-Oct-15 13:33N 38°01' E 023°32'0 0.0
2014-Oct-15 12:33N 38°01' E 023°32'4 4.4
2014-Oct-15 11:34N 37°57' E 023°34'8 7.9
2014-Oct-15 10:33N 37°51' E 023°39'1110.9
2014-Oct-15 09:33N 37°41' E 023°45'1210.8
2014-Oct-15 08:29N 37°33' E 023°55'1010.6
2014-Oct-15 07:33N 37°26' E 024°05'1110.6
2014-Oct-15 06:33N 37°19' E 024°14'1010.2
2014-Oct-15 05:32N 37°15' E 024°27'1010.3
2014-Oct-15 04:33N 37°10' E 024°38'1110.8
2014-Oct-15 03:33N 37°02' E 024°47'1010.3
2014-Oct-15 02:33N 36°55' E 024°56'1010.4
2014-Oct-15 01:33N 36°51' E 025°08'1010.5
2014-Oct-15 00:33N 36°49' E 025°21'1010.3
2014-Oct-14 23:33N 36°45' E 025°33'1010.1
2014-Oct-14 22:33N 36°43' E 025°45'10 9.8
2014-Oct-14 21:33N 36°43' E 025°57'1010.1
2014-Oct-14 20:33N 36°44' E 026°10'1010.2
2014-Oct-14 19:33N 36°46' E 026°22'16 1.2
2014-Oct-14 06:29N 36°35' E 026°36'9 9.5
2014-Oct-14 05:33N 36°29' E 026°28'10 9.7
2014-Oct-14 04:33N 36°22' E 026°19'10 9.7
2014-Oct-14 03:33N 36°16' E 026°11'10 9.7
2014-Oct-14 02:33N 36°09' E 026°02'10 9.9
2014-Oct-14 01:33N 36°03' E 025°53'1010.1
2014-Oct-14 00:33N 35°56' E 025°44'1010.3
2014-Oct-13 23:33N 35°49' E 025°34'1010.3
2014-Oct-13 22:33N 35°42' E 025°25'1110.6
2014-Oct-13 21:33N 35°34' E 025°16'10 0.6
2014-Oct-13 04:22N 35°32' E 025°04'810.2
2014-Oct-13 03:33N 35°40' E 025°01'1010.2
2014-Oct-13 02:33N 35°50' E 024°58'1110.5
2014-Oct-13 01:32N 36°00' E 024°56'1010.6
2014-Oct-13 00:33N 36°10' E 024°52'1010.5
2014-Oct-12 23:33N 36°21' E 024°50'1010.0
2014-Oct-12 22:33N 36°30' E 024°47'1010.0
2014-Oct-12 21:33N 36°40' E 024°45'10 9.5
2014-Oct-12 20:33N 36°49' E 024°41'9 9.4
2014-Oct-12 19:33N 36°56' E 024°33'10 9.6
2014-Oct-12 18:33N 37°03' E 024°25'1310.0
2014-Oct-12 17:13N 37°14' E 024°15'8 9.9
2014-Oct-12 16:25N 37°20' E 024°09'28 9.6
2014-Oct-12 13:33N 37°39' E 023°43'1010.0
2014-Oct-12 12:33N 37°48' E 023°38'9 9.3
2014-Oct-12 11:33N 37°57' E 023°35'5 0.3
2014-Oct-11 14:33N 38°01' E 023°31'7 6.9
2014-Oct-11 13:33N 37°56' E 023°36'6 5.9
2014-Oct-11 12:33N 37°50' E 023°40'10 9.4
2014-Oct-11 11:33N 37°42' E 023°45'23 9.4
2014-Oct-11 09:04N 37°25' E 024°06'4 8.6
2014-Oct-11 08:33N 37°23' E 024°10'9 8.9
2014-Oct-11 07:32N 37°17' E 024°19'9 8.6
2014-Oct-11 06:31N 37°15' E 024°30'8 8.2
2014-Oct-11 05:33N 37°10' E 024°37'9 8.9
2014-Oct-11 04:33N 37°04' E 024°45'10 9.6
2014-Oct-11 03:32N 36°57' E 024°54'9 9.5
2014-Oct-11 02:33N 36°52' E 025°04'1010.3
2014-Oct-11 01:33N 36°50' E 025°16'10 9.8
2014-Oct-11 00:33N 36°47' E 025°28'10 9.6
2014-Oct-10 23:33N 36°44' E 025°39'9 9.1
2014-Oct-10 22:33N 36°43' E 025°51'1010.1
2014-Oct-10 21:32N 36°49' E 026°01'9 8.6
2014-Oct-10 20:31N 36°52' E 026°12'18 8.1
2014-Oct-10 18:16N 36°53' E 026°34'7 8.9
2014-Oct-10 17:31N 36°52' E 026°42'10 0.6
2014-Oct-10 02:33N 36°48' E 026°53'8 7.9
2014-Oct-10 01:32N 36°40' E 026°53'6 0.2
2014-Oct-08 20:22N 36°34' E 026°55'8 9.1
2014-Oct-08 19:32N 36°37' E 026°47'10 9.8
2014-Oct-08 18:32N 36°42' E 026°36'10 9.7
2014-Oct-08 17:33N 36°45' E 026°25'10 9.8
2014-Oct-08 16:33N 36°49' E 026°13'9 9.2
2014-Oct-08 15:33N 36°50' E 026°02'9 8.6
2014-Oct-08 14:33N 36°44' E 025°53'9 9.1
2014-Oct-08 13:33N 36°44' E 025°42'1010.3
2014-Oct-08 12:33N 36°47' E 025°29'1010.0
2014-Oct-08 11:33N 36°49' E 025°17'1010.0
2014-Oct-08 10:33N 36°52' E 025°05'10 9.5
2014-Oct-08 09:33N 36°56' E 024°55'10 9.8
2014-Oct-08 08:33N 37°04' E 024°46'1010.0
2014-Oct-08 07:33N 37°11' E 024°37'9 8.9
2014-Oct-08 06:33N 37°15' E 024°28'12 9.0
2014-Oct-08 05:12N 37°19' E 024°13'610.0
2014-Oct-08 04:33N 37°24' E 024°08'10 9.5
2014-Oct-08 03:32N 37°30' E 023°58'9 9.7
2014-Oct-08 02:33N 37°36' E 023°49'9 9.5
2014-Oct-08 01:33N 37°43' E 023°41'9 9.1
2014-Oct-08 00:34N 37°50' E 023°33'1010.0
2014-Oct-07 23:33N 37°52' E 023°21'1010.2
2014-Oct-07 22:33N 37°54' E 023°08'  

Dump ship's entire track history